Feni, Bangladesh

8:30 AM BDT on July 27, 2016 (GMT +0600)
M.A. Hannan International | | Change Station

Elev 13 ft 22.27 °N, 91.82 °E | Updated 30 minutes ago

Mostly Cloudy
Mostly Cloudy
84 °F
Feels Like 96 °F
N
6
Wind Variable Wind from South

Today
High -- | Low -- °F
--% Chance of Precip.
Yesterday
High -- | Low -- °F
Precip. -- in
Pressure 29.80 in
Visibility 3.1 miles
Clouds Scattered Clouds 1800 ft
Mostly Cloudy 10000 ft
Heat Index 96 °F
Dew Point 79 °F
Humidity 84%
Rainfall 0.00 in
Snow Depth Not available.
5:23 AM 6:38 PM
Waning Gibbous, 48% visible
METAR VGEG 270200Z 19005KT 5000 SCT018 BKN100 29/26 Q1009 NOSIG
Pressure 29.80 in
Visibility 3.1 miles
Clouds Scattered Clouds 1800 ft
Mostly Cloudy 10000 ft
Heat Index 96 °F
Dew Point 79 °F
Humidity 84%
Rainfall 0.00 in
Snow Depth Not available.
5:23 AM 6:38 PM
Waning Gibbous, 48% visible
METAR VGEG 270200Z 19005KT 5000 SCT018 BKN100 29/26 Q1009 NOSIG

10-Day Weather Forecast

No radar image for this location.
×

Almanac

Astronomy

Jul. 27, 2016 Rise Set
Actual Time
Civil Twilight
Nautical Twilight
Astronomical Twilight
Moon
Length of Visible Light
Length of Day
Tomorrow will be .
, % of the Moon is Illuminated

Today's Extremes

Country Highs Country Lows

Community

WunderPhotos

Upload Photos

1,927,777 photos uploaded!

WunderBlog® & News

Nearby

Air Quality

  Air Quality AQ Index Pollutant
Not available.

Snow Depth

Station Depth Elevation

Earthquake Activity

City Distance Mag. Time & Date
Minimum magnitude displayed is 2.5.

Coastal Water Temperatures

Place Temperature

Stations

Nearby Weather Stations

Station Location Temp. Windchill Dew Point Humidity Wind Precip. Elev Updated Type